createdAt,value
2019-01-26T00:02:16.986Z,62.27
2019-01-26T00:05:39.553Z,67.93
2019-01-26T00:09:02.089Z,65.97
2019-01-26T00:12:25.017Z,59.87
2019-01-26T00:15:47.796Z,62.73
2019-01-26T00:19:10.335Z,64.97
2019-01-26T00:22:33.002Z,69.03
2019-01-26T00:25:55.732Z,66.10
2019-01-26T00:29:18.405Z,64.93
2019-01-26T00:32:41.333Z,63.67
2019-01-26T00:36:03.754Z,64.87
2019-01-26T00:39:26.173Z,66.63
2019-01-26T00:42:48.662Z,65.33
2019-01-26T00:46:11.352Z,69.33
2019-01-26T00:49:33.954Z,63.50
2019-01-26T00:53:06.490Z,66.37
2019-01-26T00:56:29.029Z,69.60
2019-01-26T00:59:51.505Z,67.37
2019-01-26T01:03:14.176Z,71.00
2019-01-26T01:06:39.547Z,72.43
2019-01-26T01:10:10.747Z,69.33
2019-01-26T01:13:33.364Z,62.63
2019-01-26T01:16:55.826Z,66.70
2019-01-26T01:20:19.262Z,70.30
2019-01-26T01:23:41.876Z,66.70
2019-01-26T01:27:04.608Z,59.40
2019-01-26T01:30:27.514Z,68.83
2019-01-26T01:33:49.609Z,72.60
2019-01-26T01:37:11.719Z,72.10
2019-01-26T01:40:34.210Z,72.97
2019-01-26T01:43:56.820Z,72.90
2019-01-26T01:47:19.220Z,70.73
2019-01-26T01:50:42.265Z,70.03
2019-01-26T01:54:04.766Z,70.23
2019-01-26T01:57:27.298Z,70.17
2019-01-26T02:00:49.857Z,78.00
2019-01-26T02:04:12.525Z,74.73
2019-01-26T02:07:34.787Z,62.60
2019-01-26T02:10:57.654Z,69.87
2019-01-26T02:14:20.482Z,67.63
2019-01-26T02:17:47.422Z,72.60
2019-01-26T02:21:16.260Z,71.60
2019-01-26T02:24:38.848Z,68.10
2019-01-26T02:28:01.392Z,70.93
2019-01-26T02:31:23.960Z,69.23
2019-01-26T02:34:46.748Z,71.37
2019-01-26T02:38:08.901Z,69.20
2019-01-26T02:41:31.416Z,77.40
2019-01-26T02:44:54.209Z,79.67
2019-01-26T02:48:17.021Z,82.80
2019-01-26T02:51:39.494Z,79.97
2019-01-26T02:55:20.884Z,85.97
2019-01-26T02:58:49.565Z,78.40
2019-01-26T03:02:12.012Z,84.27
2019-01-26T03:05:34.882Z,82.13
2019-01-26T03:08:57.416Z,94.73
2019-01-26T03:12:20.116Z,87.83
2019-01-26T03:15:42.465Z,85.27
2019-01-26T03:19:05.021Z,87.40
2019-01-26T03:22:27.588Z,83.40
2019-01-26T03:25:50.324Z,94.97
2019-01-26T03:29:13.169Z,98.20
2019-01-26T03:32:35.643Z,93.40
2019-01-26T03:35:58.177Z,102.30
2019-01-26T03:39:20.623Z,100.93
2019-01-26T03:42:43.260Z,97.10
2019-01-26T03:46:06.005Z,95.47
2019-01-26T03:49:28.418Z,94.40
2019-01-26T03:52:51.008Z,99.20
2019-01-26T03:56:13.680Z,94.17
2019-01-26T03:59:35.770Z,97.57
2019-01-26T04:02:58.451Z,101.10
2019-01-26T04:06:20.990Z,97.50
2019-01-26T04:09:43.235Z,92.30
2019-01-26T04:13:05.633Z,113.40
2019-01-26T04:16:28.566Z,110.70
2019-01-26T04:19:51.420Z,103.33
2019-01-26T04:23:19.611Z,120.57
2019-01-26T04:26:43.339Z,125.87
2019-01-26T04:30:09.163Z,130.77
2019-01-26T04:33:31.507Z,141.57
2019-01-26T04:36:53.971Z,125.00
2019-01-26T04:40:17.718Z,128.07
2019-01-26T04:43:40.162Z,116.20
2019-01-26T04:47:02.598Z,111.73
2019-01-26T04:50:25.122Z,119.03
2019-01-26T04:53:47.570Z,129.17
2019-01-26T04:57:09.939Z,113.43
2019-01-26T05:00:32.357Z,123.93
2019-01-26T05:03:54.799Z,124.00
2019-01-26T05:07:20.294Z,133.63
2019-01-26T05:10:42.510Z,140.63
2019-01-26T05:14:05.176Z,127.30
2019-01-26T05:17:27.371Z,121.43
2019-01-26T05:20:49.977Z,121.47
2019-01-26T05:24:12.539Z,132.40
2019-01-26T05:27:34.911Z,128.43
2019-01-26T05:30:57.440Z,125.80
2019-01-26T05:34:20.141Z,143.17
2019-01-26T05:37:42.914Z,129.50
2019-01-26T05:41:05.409Z,133.10
2019-01-26T05:44:27.967Z,148.77
2019-01-26T05:47:50.769Z,135.07
2019-01-26T05:51:13.298Z,146.43
2019-01-26T05:54:35.844Z,160.80
2019-01-26T05:57:58.517Z,151.57
2019-01-26T06:01:21.404Z,148.33
2019-01-26T06:04:44.255Z,156.07
2019-01-26T06:08:06.839Z,145.63
2019-01-26T06:11:29.858Z,147.23
2019-01-26T06:14:52.761Z,165.77
2019-01-26T06:18:17.014Z,165.57
2019-01-26T06:21:39.735Z,163.03
2019-01-26T06:25:02.422Z,170.53
2019-01-26T06:28:25.473Z,183.33
2019-01-26T06:31:48.314Z,178.17
2019-01-26T06:35:11.438Z,171.30
2019-01-26T06:38:34.285Z,194.60
2019-01-26T06:41:57.238Z,202.53
2019-01-26T06:45:21.055Z,180.67
2019-01-26T06:48:43.558Z,192.40
2019-01-26T06:52:06.063Z,180.67
2019-01-26T06:55:28.677Z,195.83
2019-01-26T06:58:50.923Z,193.33
2019-01-26T07:02:13.657Z,175.03
2019-01-26T07:05:47.448Z,208.57
2019-01-26T07:09:09.987Z,195.93
2019-01-26T07:12:33.485Z,187.90
2019-01-26T07:15:58.357Z,210.63
2019-01-26T07:19:20.798Z,189.47
2019-01-26T07:22:43.290Z,222.67
2019-01-26T07:26:06.069Z,188.03
2019-01-26T07:29:28.309Z,189.27
2019-01-26T07:32:51.053Z,235.17
2019-01-26T07:36:13.397Z,226.37
2019-01-26T07:39:35.524Z,253.47
2019-01-26T07:42:58.085Z,189.77
2019-01-26T07:46:20.554Z,235.87
2019-01-26T07:49:43.004Z,228.47
2019-01-26T07:53:05.444Z,204.73
2019-01-26T07:56:28.054Z,251.70
2019-01-26T07:59:50.680Z,212.97
2019-01-26T08:03:13.122Z,212.83
2019-01-26T08:06:35.766Z,253.23
2019-01-26T08:09:58.623Z,210.10
2019-01-26T08:13:21.303Z,229.20
2019-01-26T08:16:43.713Z,261.30
2019-01-26T08:20:08.934Z,309.40
2019-01-26T08:23:31.309Z,454.00
2019-01-26T08:26:53.729Z,479.03
2019-01-26T08:30:18.931Z,246.90
2019-01-26T08:33:41.056Z,360.27
2019-01-26T08:37:03.577Z,233.93
2019-01-26T08:40:25.776Z,465.63
2019-01-26T08:43:48.466Z,286.67
2019-01-26T08:47:11.324Z,241.70
2019-01-26T08:50:34.379Z,303.03
2019-01-26T08:53:57.163Z,354.80
2019-01-26T08:57:19.774Z,498.93
2019-01-26T09:00:42.493Z,373.07
2019-01-26T09:04:18.314Z,254.67
2019-01-26T09:07:40.433Z,448.13
2019-01-26T09:11:02.907Z,280.97
2019-01-26T09:14:26.839Z,255.40
2019-01-26T09:17:49.648Z,290.17
2019-01-26T09:21:12.179Z,231.37
2019-01-26T09:24:34.648Z,218.27
2019-01-26T09:27:57.727Z,327.97
2019-01-26T09:31:19.915Z,239.50
2019-01-26T09:34:42.392Z,235.27
2019-01-26T09:38:04.934Z,157.83
2019-01-26T09:41:27.577Z,261.87
2019-01-26T09:44:50.077Z,225.33
2019-01-26T09:48:12.258Z,226.67
2019-01-26T09:51:35.028Z,222.17
2019-01-26T09:54:57.189Z,198.60
2019-01-26T09:58:20.094Z,216.63
2019-01-26T10:01:42.836Z,205.97
2019-01-26T10:05:06.260Z,180.27
2019-01-26T10:08:28.648Z,169.00
2019-01-26T10:11:51.326Z,171.43
2019-01-26T10:15:15.678Z,170.33
2019-01-26T10:18:38.449Z,167.47
2019-01-26T10:22:01.192Z,141.83
2019-01-26T10:25:24.133Z,135.90
2019-01-26T10:28:46.686Z,119.97
2019-01-26T10:32:09.399Z,140.17
2019-01-26T10:35:50.225Z,125.63
2019-01-26T10:39:17.721Z,115.03
2019-01-26T10:42:40.552Z,113.77
2019-01-26T10:46:02.758Z,112.53
2019-01-26T10:49:25.148Z,113.90
2019-01-26T10:52:47.409Z,107.67
2019-01-26T10:56:09.865Z,116.67
2019-01-26T10:59:32.400Z,96.07
2019-01-26T11:02:55.102Z,101.10
2019-01-26T11:06:17.673Z,90.30
2019-01-26T11:09:40.284Z,87.27
2019-01-26T11:13:03.089Z,97.67
2019-01-26T11:16:26.174Z,87.80
2019-01-26T11:19:49.126Z,81.83
2019-01-26T11:23:11.570Z,74.30
2019-01-26T11:26:34.657Z,79.53
2019-01-26T11:29:57.145Z,65.07
2019-01-26T11:33:19.718Z,60.53
2019-01-26T11:36:42.339Z,61.10
2019-01-26T11:40:25.230Z,67.33
2019-01-26T11:43:47.560Z,57.77
2019-01-26T11:47:14.560Z,53.43
2019-01-26T11:50:42.572Z,48.93
2019-01-26T11:54:05.355Z,56.33
2019-01-26T11:57:30.650Z,45.77
2019-01-26T12:01:27.511Z,48.60
2019-01-26T12:04:55.299Z,45.43
2019-01-26T12:08:18.073Z,57.57
2019-01-26T12:11:40.429Z,39.60
2019-01-26T12:15:02.938Z,36.33
2019-01-26T12:18:25.177Z,44.87
2019-01-26T12:21:47.882Z,34.30
2019-01-26T12:25:10.822Z,38.63
2019-01-26T12:28:33.556Z,36.70
2019-01-26T12:31:56.498Z,31.47
2019-01-26T12:35:19.101Z,37.93
2019-01-26T12:38:42.078Z,30.53
2019-01-26T12:42:05.248Z,29.70
2019-01-26T12:45:28.162Z,26.70
2019-01-26T12:48:51.042Z,31.20
2019-01-26T12:52:13.752Z,29.33
2019-01-26T12:55:36.579Z,29.77
2019-01-26T12:58:59.299Z,26.63
2019-01-26T13:02:21.691Z,28.27
2019-01-26T13:05:44.486Z,31.73
2019-01-26T13:09:09.734Z,26.57
2019-01-26T13:12:32.387Z,26.40
2019-01-26T13:15:55.030Z,23.07
2019-01-26T13:19:17.714Z,26.10
2019-01-26T13:22:40.321Z,29.47
2019-01-26T13:26:02.778Z,17.27
2019-01-26T13:29:25.199Z,20.50
2019-01-26T13:32:48.086Z,19.37
2019-01-26T13:36:10.803Z,20.70
2019-01-26T13:39:33.480Z,19.67
2019-01-26T13:42:55.994Z,19.97
2019-01-26T13:46:18.524Z,19.37
2019-01-26T13:49:44.133Z,16.70
2019-01-26T13:53:05.142Z,22.10
2019-01-26T13:56:27.868Z,19.13
2019-01-26T13:59:50.299Z,21.33
2019-01-26T14:03:12.747Z,17.23
2019-01-26T14:06:35.449Z,21.47
2019-01-26T14:09:58.015Z,19.10
2019-01-26T14:13:20.894Z,30.53
2019-01-26T14:16:43.393Z,22.57
2019-01-26T14:20:08.167Z,19.40
2019-01-26T14:23:30.370Z,18.97
2019-01-26T14:26:52.870Z,25.47
2019-01-26T14:30:30.822Z,27.73
2019-01-26T14:33:53.198Z,21.23
2019-01-26T14:37:15.695Z,24.43
2019-01-26T14:40:38.176Z,24.93
2019-01-26T14:44:00.384Z,30.37
2019-01-26T14:47:23.109Z,23.37
2019-01-26T14:50:45.598Z,22.77
2019-01-26T14:54:08.962Z,23.00
2019-01-26T14:57:31.525Z,24.63
2019-01-26T15:00:54.461Z,26.00
2019-01-26T15:04:17.226Z,21.83
2019-01-26T15:07:40.256Z,18.43
2019-01-26T15:11:02.972Z,20.80
2019-01-26T15:14:25.315Z,21.17
2019-01-26T15:17:47.653Z,23.73
2019-01-26T15:21:10.155Z,22.40
2019-01-26T15:24:32.565Z,23.40
2019-01-26T15:27:54.909Z,20.83
2019-01-26T15:31:17.265Z,19.23
2019-01-26T15:34:39.572Z,23.30
2019-01-26T15:38:01.991Z,18.87
2019-01-26T15:41:24.438Z,21.77
2019-01-26T15:44:46.553Z,25.00
2019-01-26T15:48:09.160Z,24.23
2019-01-26T15:51:31.870Z,20.40
2019-01-26T15:54:54.563Z,20.67
2019-01-26T15:58:17.024Z,24.00
2019-01-26T16:01:39.493Z,25.13
2019-01-26T16:05:02.317Z,20.57
2019-01-26T16:08:24.836Z,24.23
2019-01-26T16:11:47.333Z,27.10
2019-01-26T16:15:12.155Z,26.27
2019-01-26T16:18:34.924Z,26.17
2019-01-26T16:21:57.779Z,31.80
2019-01-26T16:25:20.481Z,31.00
2019-01-26T16:28:42.664Z,33.90
2019-01-26T16:32:05.386Z,37.07
2019-01-26T16:35:28.865Z,40.73
2019-01-26T16:38:51.220Z,36.37
2019-01-26T16:42:13.956Z,44.47
2019-01-26T16:45:38.566Z,43.47
2019-01-26T16:49:01.081Z,42.83
2019-01-26T16:52:23.742Z,43.20
2019-01-26T16:55:46.139Z,43.87
2019-01-26T16:59:08.765Z,44.20
2019-01-26T17:02:31.301Z,46.30
2019-01-26T17:05:53.888Z,44.90
2019-01-26T17:09:16.820Z,45.00
2019-01-26T17:12:39.505Z,47.20
2019-01-26T17:16:02.205Z,50.73
2019-01-26T17:19:24.583Z,50.53
2019-01-26T17:22:47.519Z,55.57
2019-01-26T17:26:10.300Z,52.77
2019-01-26T17:29:32.913Z,62.97
2019-01-26T17:32:55.446Z,56.20
2019-01-26T17:36:17.957Z,50.90
2019-01-26T17:39:40.669Z,54.57
2019-01-26T17:43:03.036Z,56.37
2019-01-26T17:46:25.710Z,55.80
2019-01-26T17:49:48.122Z,57.93
2019-01-26T17:53:10.840Z,60.03
2019-01-26T17:56:33.355Z,57.23
2019-01-26T17:59:55.869Z,52.57
2019-01-26T18:03:18.401Z,53.73
2019-01-26T18:06:40.918Z,53.83
2019-01-26T18:10:04.465Z,52.60
2019-01-26T18:13:26.920Z,49.73
2019-01-26T18:16:49.327Z,48.47
2019-01-26T18:20:15.910Z,54.67
2019-01-26T18:23:38.301Z,46.50
2019-01-26T18:27:00.908Z,49.97
2019-01-26T18:30:24.685Z,70.50
2019-01-26T18:33:47.386Z,61.47
2019-01-26T18:37:09.839Z,62.17
2019-01-26T18:40:32.542Z,55.30
2019-01-26T18:43:55.034Z,49.27
2019-01-26T18:47:17.718Z,47.17
2019-01-26T18:50:42.601Z,48.60
2019-01-26T18:54:04.781Z,53.73
2019-01-26T18:57:28.377Z,62.70
2019-01-26T19:00:51.394Z,89.57
2019-01-26T19:04:27.116Z,72.77
2019-01-26T19:07:49.877Z,61.60
2019-01-26T19:11:12.355Z,61.37
2019-01-26T19:14:35.021Z,54.63
2019-01-26T19:17:57.229Z,56.67
2019-01-26T19:21:19.833Z,56.43
2019-01-26T19:24:42.621Z,51.70
2019-01-26T19:28:05.543Z,52.50
2019-01-26T19:31:28.205Z,55.37
2019-01-26T19:34:51.274Z,55.90
2019-01-26T19:38:14.202Z,50.97
2019-01-26T19:41:36.814Z,50.13
2019-01-26T19:45:01.088Z,45.47
2019-01-26T19:48:23.750Z,47.20
2019-01-26T19:51:46.746Z,46.77
2019-01-26T19:55:10.075Z,50.20
2019-01-26T19:58:32.914Z,55.77
2019-01-26T20:01:55.679Z,53.60
2019-01-26T20:05:19.680Z,50.87
2019-01-26T20:08:42.337Z,57.70
2019-01-26T20:12:06.689Z,55.10
2019-01-26T20:15:29.468Z,57.10
2019-01-26T20:18:52.032Z,66.00
2019-01-26T20:22:14.653Z,55.60
2019-01-26T20:25:37.335Z,50.07
2019-01-26T20:28:59.602Z,59.07
2019-01-26T20:32:22.202Z,54.67
2019-01-26T20:35:44.813Z,53.17
2019-01-26T20:39:08.914Z,56.47
2019-01-26T20:42:31.901Z,64.20
2019-01-26T20:45:54.445Z,77.77
2019-01-26T20:49:17.298Z,72.20
2019-01-26T20:52:39.993Z,77.07
2019-01-26T20:56:02.962Z,69.57
2019-01-26T20:59:25.106Z,70.87
2019-01-26T21:02:47.518Z,80.03
2019-01-26T21:06:10.302Z,84.07
2019-01-26T21:09:32.486Z,96.33
2019-01-26T21:12:55.318Z,93.20
2019-01-26T21:16:17.989Z,83.07
2019-01-26T21:19:40.417Z,72.50
2019-01-26T21:23:03.076Z,86.47
2019-01-26T21:26:25.786Z,77.23
2019-01-26T21:29:48.271Z,73.00
2019-01-26T21:33:10.652Z,75.93
2019-01-26T21:36:33.139Z,87.23
2019-01-26T21:39:55.779Z,84.73
2019-01-26T21:43:18.234Z,91.77
2019-01-26T21:46:40.972Z,79.03
2019-01-26T21:50:03.409Z,87.67
2019-01-26T21:53:25.692Z,73.90
2019-01-26T21:56:48.275Z,73.63
2019-01-26T22:00:17.735Z,84.03
2019-01-26T22:03:40.754Z,86.13
2019-01-26T22:07:03.244Z,83.63
2019-01-26T22:10:26.403Z,91.23
2019-01-26T22:13:48.901Z,86.67
2019-01-26T22:17:11.292Z,80.83
2019-01-26T22:20:33.890Z,84.73
2019-01-26T22:23:56.429Z,82.10
2019-01-26T22:27:19.444Z,91.53
2019-01-26T22:30:42.206Z,88.80
2019-01-26T22:34:05.125Z,89.10
2019-01-26T22:37:27.491Z,86.60
2019-01-26T22:40:50.209Z,97.87
2019-01-26T22:44:12.348Z,88.40
2019-01-26T22:47:35.040Z,97.30
2019-01-26T22:50:57.483Z,101.53
2019-01-26T22:54:19.674Z,103.10
2019-01-26T22:57:42.342Z,103.23
2019-01-26T23:01:28.898Z,104.13
2019-01-26T23:05:53.750Z,121.73
2019-01-26T23:09:22.722Z,116.13
2019-01-26T23:13:02.365Z,147.37
2019-01-26T23:17:25.796Z,145.13
2019-01-26T23:20:58.846Z,144.83
2019-01-26T23:24:41.585Z,143.30
2019-01-26T23:28:24.997Z,160.50
2019-01-26T23:31:47.701Z,158.03
2019-01-26T23:35:10.428Z,152.07
2019-01-26T23:38:33.143Z,154.87
2019-01-26T23:41:55.912Z,155.63
2019-01-26T23:45:29.002Z,151.60
2019-01-26T23:48:51.017Z,147.80
2019-01-26T23:52:13.518Z,153.43
2019-01-26T23:55:36.052Z,149.83
2019-01-26T23:58:58.275Z,134.73
